Aviation Digital Data Service (ADDS)

Output produced by METARs form (2314 UTC 15 February 2019)
found at http://www.aviationweather.gov/metar/data/
 
METAR text: KMYR 152256Z 20006KT 10SM FEW075 17/07 A2985 RMK AO2 SLP108 T01720072
Conditions at: KMYR (MYRTLE BEACH , SC, US) observed 2256 UTC 15 February 2019
Temperature: 17.2°C (63°F)
Dewpoint: 7.2°C (45°F) [RH = 52%]
Pressure (altimeter): 29.85 inches Hg (1010.9 mb)
[Sea-level pressure: 1010.8 mb]
Winds: from the SSW (200 degrees) at 7 MPH (6 knots; 3.1 m/s)
Visibility: 10 or more miles (16+ km)
Ceiling: at least 12,000 feet AGL
Clouds: few clouds at 7500 feet AGL
Weather: no significant weather observed at this time

METAR text: KMYR 152156Z 19008KT 10SM CLR 18/06 A2986 RMK AO2 SLP111 T01830061
Conditions at: KMYR (MYRTLE BEACH , SC, US) observed 2156 UTC 15 February 2019
Temperature: 18.3°C (65°F)
Dewpoint: 6.1°C (43°F) [RH = 45%]
Pressure (altimeter): 29.86 inches Hg (1011.3 mb)
[Sea-level pressure: 1011.1 mb]
Winds: from the S (190 degrees) at 9 MPH (8 knots; 4.1 m/s)
Visibility: 10 or more miles (16+ km)
Ceiling: at least 12,000 feet AGL
Clouds: sky clear below 12,000 feet AGL
Weather: no significant weather observed at this time

METAR text: KMYR 152056Z 20013KT 10SM CLR 19/06 A2985 RMK AO2 SLP110 T01940061 56024
Conditions at: KMYR (MYRTLE BEACH , SC, US) observed 2056 UTC 15 February 2019
Temperature: 19.4°C (67°F)
Dewpoint: 6.1°C (43°F) [RH = 42%]
Pressure (altimeter): 29.85 inches Hg (1010.9 mb)
[Sea-level pressure: 1011.0 mb]
Winds: from the SSW (200 degrees) at 15 MPH (13 knots; 6.7 m/s)
Visibility: 10 or more miles (16+ km)
Ceiling: at least 12,000 feet AGL
Clouds: sky clear below 12,000 feet AGL
Weather: no significant weather observed at this time

METAR text: KMYR 151956Z 19009KT 10SM CLR 21/07 A2987 RMK AO2 SLP116 T02060072
Conditions at: KMYR (MYRTLE BEACH , SC, US) observed 1956 UTC 15 February 2019
Temperature: 20.6°C (69°F)
Dewpoint: 7.2°C (45°F) [RH = 42%]
Pressure (altimeter): 29.87 inches Hg (1011.6 mb)
[Sea-level pressure: 1011.6 mb]
Winds: from the S (190 degrees) at 10 MPH (9 knots; 4.6 m/s)
Visibility: 10 or more miles (16+ km)
Ceiling: at least 12,000 feet AGL
Clouds: sky clear below 12,000 feet AGL
Weather: no significant weather observed at this time

METAR text: KMYR 151856Z 19012KT 10SM CLR 19/07 A2989 RMK AO2 SLP122 T01940067
Conditions at: KMYR (MYRTLE BEACH , SC, US) observed 1856 UTC 15 February 2019
Temperature: 19.4°C (67°F)
Dewpoint: 6.7°C (44°F) [RH = 44%]
Pressure (altimeter): 29.89 inches Hg (1012.3 mb)
[Sea-level pressure: 1012.2 mb]
Winds: from the S (190 degrees) at 14 MPH (12 knots; 6.2 m/s)
Visibility: 10 or more miles (16+ km)
Ceiling: at least 12,000 feet AGL
Clouds: sky clear below 12,000 feet AGL
Weather: no significant weather observed at this time

METAR text: KMYR 151756Z 19010KT 10SM CLR 19/07 A2993 RMK AO2 SLP134 T01940067 10211 20133 58027
Conditions at: KMYR (MYRTLE BEACH , SC, US) observed 1756 UTC 15 February 2019
Temperature: 19.4°C (67°F)
Dewpoint: 6.7°C (44°F) [RH = 44%]
Pressure (altimeter): 29.93 inches Hg (1013.6 mb)
[Sea-level pressure: 1013.4 mb]
Winds: from the S (190 degrees) at 12 MPH (10 knots; 5.1 m/s)
Visibility: 10 or more miles (16+ km)
Ceiling: at least 12,000 feet AGL
Clouds: sky clear below 12,000 feet AGL
Weather: no significant weather observed at this time

METAR text: KMYR 151656Z 22011KT 10SM CLR 21/M01 A2996 RMK AO2 SLP145 T02111011
Conditions at: KMYR (MYRTLE BEACH , SC, US) observed 1656 UTC 15 February 2019
Temperature: 21.1°C (70°F)
Dewpoint: -1.1°C (30°F) [RH = 23%]
Pressure (altimeter): 29.96 inches Hg (1014.6 mb)
[Sea-level pressure: 1014.5 mb]
Winds: from the SW (220 degrees) at 13 MPH (11 knots; 5.7 m/s)
Visibility: 10 or more miles (16+ km)
Ceiling: at least 12,000 feet AGL
Clouds: sky clear below 12,000 feet AGL
Weather: no significant weather observed at this time

METAR text: KMYR 151556Z 22010KT 10SM CLR 19/03 A2998 RMK AO2 SLP153 T01940028
Conditions at: KMYR (MYRTLE BEACH , SC, US) observed 1556 UTC 15 February 2019
Temperature: 19.4°C (67°F)
Dewpoint: 2.8°C (37°F) [RH = 33%]
Pressure (altimeter): 29.98 inches Hg (1015.3 mb)
[Sea-level pressure: 1015.3 mb]
Winds: from the SW (220 degrees) at 12 MPH (10 knots; 5.1 m/s)
Visibility: 10 or more miles (16+ km)
Ceiling: at least 12,000 feet AGL
Clouds: sky clear below 12,000 feet AGL
Weather: no significant weather observed at this time

METAR text: KMYR 151456Z 24007KT 10SM FEW120 18/04 A3001 RMK AO2 SLP161 T01780044 58000
Conditions at: KMYR (MYRTLE BEACH , SC, US) observed 1456 UTC 15 February 2019
Temperature: 17.8°C (64°F)
Dewpoint: 4.4°C (40°F) [RH = 41%]
Pressure (altimeter): 30.01 inches Hg (1016.3 mb)
[Sea-level pressure: 1016.1 mb]
Winds: from the WSW (240 degrees) at 8 MPH (7 knots; 3.6 m/s)
Visibility: 10 or more miles (16+ km)
Ceiling: at least 12,000 feet AGL
Clouds: few clouds at 12000 feet AGL
Weather: no significant weather observed at this time

METAR text: KMYR 151356Z 26008KT 10SM FEW120 15/08 A3002 RMK AO2 SLP166 T01500078
Conditions at: KMYR (MYRTLE BEACH , SC, US) observed 1356 UTC 15 February 2019
Temperature: 15.0°C (59°F)
Dewpoint: 7.8°C (46°F) [RH = 62%]
Pressure (altimeter): 30.02 inches Hg (1016.7 mb)
[Sea-level pressure: 1016.6 mb]
Winds: from the W (260 degrees) at 9 MPH (8 knots; 4.1 m/s)
Visibility: 10 or more miles (16+ km)
Ceiling: at least 12,000 feet AGL
Clouds: few clouds at 12000 feet AGL
Weather: no significant weather observed at this time

METAR text: KMYR 151256Z 25006KT 10SM FEW120 14/09 A3001 RMK AO2 SLP163 T01390094
Conditions at: KMYR (MYRTLE BEACH , SC, US) observed 1256 UTC 15 February 2019
Temperature: 13.9°C (57°F)
Dewpoint: 9.4°C (49°F) [RH = 74%]
Pressure (altimeter): 30.01 inches Hg (1016.3 mb)
[Sea-level pressure: 1016.3 mb]
Winds: from the WSW (250 degrees) at 7 MPH (6 knots; 3.1 m/s)
Visibility: 10 or more miles (16+ km)
Ceiling: at least 12,000 feet AGL
Clouds: few clouds at 12000 feet AGL
Weather: no significant weather observed at this time

METAR text: KMYR 151156Z 26006KT 10SM FEW049 14/09 A3001 RMK AO2 SLP162 T01390094 10161 20128 50006
Conditions at: KMYR (MYRTLE BEACH , SC, US) observed 1156 UTC 15 February 2019
Temperature: 13.9°C (57°F)
Dewpoint: 9.4°C (49°F) [RH = 74%]
Pressure (altimeter): 30.01 inches Hg (1016.3 mb)
[Sea-level pressure: 1016.2 mb]
Winds: from the W (260 degrees) at 7 MPH (6 knots; 3.1 m/s)
Visibility: 10 or more miles (16+ km)
Ceiling: at least 12,000 feet AGL
Clouds: few clouds at 4900 feet AGL
Weather: no significant weather observed at this time

METAR text: KMYR 151056Z 27006KT 10SM BKN047 BKN120 14/09 A3002 RMK AO2 SLP164 T01390094
Conditions at: KMYR (MYRTLE BEACH , SC, US) observed 1056 UTC 15 February 2019
Temperature: 13.9°C (57°F)
Dewpoint: 9.4°C (49°F) [RH = 74%]
Pressure (altimeter): 30.02 inches Hg (1016.7 mb)
[Sea-level pressure: 1016.4 mb]
Winds: from the W (270 degrees) at 7 MPH (6 knots; 3.1 m/s)
Visibility: 10 or more miles (16+ km)
Ceiling: 4700 feet AGL
Clouds: broken clouds at 4700 feet AGL
broken clouds at 12000 feet AGL
Weather: no significant weather observed at this time

METAR text: KMYR 150956Z AUTO 27005KT 10SM BKN045 13/10 A3000 RMK AO2 SLP158 T01330100
Conditions at: KMYR (MYRTLE BEACH , SC, US) observed 0956 UTC 15 February 2019
Temperature: 13.3°C (56°F)
Dewpoint: 10.0°C (50°F) [RH = 80%]
Pressure (altimeter): 30.00 inches Hg (1016.0 mb)
[Sea-level pressure: 1015.8 mb]
Winds: from the W (270 degrees) at 6 MPH (5 knots; 2.6 m/s)
Visibility: 10 or more miles (16+ km)
Ceiling: 4500 feet AGL
Clouds: broken clouds at 4500 feet AGL
Weather: automated observation with no human augmentation;
there may or may not be significant weather present at this time

METAR text: KMYR 150856Z AUTO 24005KT 10SM BKN045 15/11 A2999 RMK AO2 SLP156 T01500111 56008
Conditions at: KMYR (MYRTLE BEACH , SC, US) observed 0856 UTC 15 February 2019
Temperature: 15.0°C (59°F)
Dewpoint: 11.1°C (52°F) [RH = 77%]
Pressure (altimeter): 29.99 inches Hg (1015.7 mb)
[Sea-level pressure: 1015.6 mb]
Winds: from the WSW (240 degrees) at 6 MPH (5 knots; 2.6 m/s)
Visibility: 10 or more miles (16+ km)
Ceiling: 4500 feet AGL
Clouds: broken clouds at 4500 feet AGL
Weather: automated observation with no human augmentation;
there may or may not be significant weather present at this time

METAR text: KMYR 150756Z AUTO 23003KT 10SM BKN047 15/12 A3000 RMK AO2 SLP159 T01500117
Conditions at: KMYR (MYRTLE BEACH , SC, US) observed 0756 UTC 15 February 2019
Temperature: 15.0°C (59°F)
Dewpoint: 11.7°C (53°F) [RH = 81%]
Pressure (altimeter): 30.00 inches Hg (1016.0 mb)
[Sea-level pressure: 1015.9 mb]
Winds: from the SW (230 degrees) at 3 MPH (3 knots; 1.5 m/s)
Visibility: 10 or more miles (16+ km)
Ceiling: 4700 feet AGL
Clouds: broken clouds at 4700 feet AGL
Weather: automated observation with no human augmentation;
there may or may not be significant weather present at this time

METAR text: KMYR 150656Z AUTO 16009KT 10SM CLR 14/12 A2999 RMK AO2 SLP155 T01440117
Conditions at: KMYR (MYRTLE BEACH , SC, US) observed 0656 UTC 15 February 2019
Temperature: 14.4°C (58°F)
Dewpoint: 11.7°C (53°F) [RH = 84%]
Pressure (altimeter): 29.99 inches Hg (1015.7 mb)
[Sea-level pressure: 1015.5 mb]
Winds: from the SSE (160 degrees) at 10 MPH (9 knots; 4.6 m/s)
Visibility: 10 or more miles (16+ km)
Ceiling: at least 12,000 feet AGL
Clouds: sky clear below 12,000 feet AGL
Weather: automated observation with no human augmentation;
there may or may not be significant weather present at this time

METAR text: KMYR 150556Z AUTO 17005KT 10SM CLR 13/11 A3002 RMK AO2 SLP164 T01280106 10139 20111 56025
Conditions at: KMYR (MYRTLE BEACH , SC, US) observed 0556 UTC 15 February 2019
Temperature: 12.8°C (55°F)
Dewpoint: 10.6°C (51°F) [RH = 86%]
Pressure (altimeter): 30.02 inches Hg (1016.7 mb)
[Sea-level pressure: 1016.4 mb]
Winds: from the S (170 degrees) at 6 MPH (5 knots; 2.6 m/s)
Visibility: 10 or more miles (16+ km)
Ceiling: at least 12,000 feet AGL
Clouds: sky clear below 12,000 feet AGL
Weather: automated observation with no human augmentation;
there may or may not be significant weather present at this time

METAR text: KMYR 150456Z AUTO 16004KT 10SM CLR 12/11 A3004 RMK AO2 SLP171 T01220106 401440011
Conditions at: KMYR (MYRTLE BEACH , SC, US) observed 0456 UTC 15 February 2019
Temperature: 12.2°C (54°F)
Dewpoint: 10.6°C (51°F) [RH = 90%]
Pressure (altimeter): 30.04 inches Hg (1017.4 mb)
[Sea-level pressure: 1017.1 mb]
Winds: from the SSE (160 degrees) at 5 MPH (4 knots; 2.1 m/s)
Visibility: 10 or more miles (16+ km)
Ceiling: at least 12,000 feet AGL
Clouds: sky clear below 12,000 feet AGL
Weather: automated observation with no human augmentation;
there may or may not be significant weather present at this time

METAR text: KMYR 150356Z 15007KT 10SM CLR 13/10 A3004 RMK AO2 SLP173 T01280100
Conditions at: KMYR (MYRTLE BEACH , SC, US) observed 0356 UTC 15 February 2019
Temperature: 12.8°C (55°F)
Dewpoint: 10.0°C (50°F) [RH = 83%]
Pressure (altimeter): 30.04 inches Hg (1017.4 mb)
[Sea-level pressure: 1017.3 mb]
Winds: from the SSE (150 degrees) at 8 MPH (7 knots; 3.6 m/s)
Visibility: 10 or more miles (16+ km)
Ceiling: at least 12,000 feet AGL
Clouds: sky clear below 12,000 feet AGL
Weather: no significant weather observed at this time

METAR text: KMYR 150256Z 14005KT 10SM CLR 12/09 A3009 RMK AO2 SLP189 T01170089 58007
Conditions at: KMYR (MYRTLE BEACH , SC, US) observed 0256 UTC 15 February 2019
Temperature: 11.7°C (53°F)
Dewpoint: 8.9°C (48°F) [RH = 83%]
Pressure (altimeter): 30.09 inches Hg (1019.0 mb)
[Sea-level pressure: 1018.9 mb]
Winds: from the SE (140 degrees) at 6 MPH (5 knots; 2.6 m/s)
Visibility: 10 or more miles (16+ km)
Ceiling: at least 12,000 feet AGL
Clouds: sky clear below 12,000 feet AGL
Weather: no significant weather observed at this time

METAR text: KMYR 150056Z 11003KT 10SM CLR 12/07 A3011 RMK AO2 SLP197 T01170072
Conditions at: KMYR (MYRTLE BEACH , SC, US) observed 0056 UTC 15 February 2019
Temperature: 11.7°C (53°F)
Dewpoint: 7.2°C (45°F) [RH = 74%]
Pressure (altimeter): 30.11 inches Hg (1019.7 mb)
[Sea-level pressure: 1019.7 mb]
Winds: from the ESE (110 degrees) at 3 MPH (3 knots; 1.5 m/s)
Visibility: 10 or more miles (16+ km)
Ceiling: at least 12,000 feet AGL
Clouds: sky clear below 12,000 feet AGL
Weather: no significant weather observed at this time

METAR text: KMYR 142356Z 10003KT 10SM CLR 11/07 A3011 RMK AO2 SLP196 T01110067 10144 20111 55004
Conditions at: KMYR (MYRTLE BEACH , SC, US) observed 2356 UTC 14 February 2019
Temperature: 11.1°C (52°F)
Dewpoint: 6.7°C (44°F) [RH = 74%]
Pressure (altimeter): 30.11 inches Hg (1019.7 mb)
[Sea-level pressure: 1019.6 mb]
Winds: from the E (100 degrees) at 3 MPH (3 knots; 1.5 m/s)
Visibility: 10 or more miles (16+ km)
Ceiling: at least 12,000 feet AGL
Clouds: sky clear below 12,000 feet AGL
Weather: no significant weather observed at this time

METAR text: KMYR 142256Z 11003KT 10SM CLR 11/06 A3010 RMK AO2 SLP194 T01110061
Conditions at: KMYR (MYRTLE BEACH , SC, US) observed 2256 UTC 14 February 2019
Temperature: 11.1°C (52°F)
Dewpoint: 6.1°C (43°F) [RH = 71%]
Pressure (altimeter): 30.10 inches Hg (1019.4 mb)
[Sea-level pressure: 1019.4 mb]
Winds: from the ESE (110 degrees) at 3 MPH (3 knots; 1.5 m/s)
Visibility: 10 or more miles (16+ km)
Ceiling: at least 12,000 feet AGL
Clouds: sky clear below 12,000 feet AGL
Weather: no significant weather observed at this time

METAR text: KMYR 142156Z COR 00000KT 10SM BKN150 12/05 A3012 RMK AO2 SLP199 T01220050
Conditions at: KMYR (MYRTLE BEACH , SC, US) observed 2156 UTC 14 February 2019
Temperature: 12.2°C (54°F)
Dewpoint: 5.0°C (41°F) [RH = 61%]
Pressure (altimeter): 30.12 inches Hg (1020.1 mb)
[Sea-level pressure: 1019.9 mb]
Winds: calm
Visibility: 10 or more miles (16+ km)
Ceiling: 15000 feet AGL
Clouds: broken clouds at 15000 feet AGL
Weather: no significant weather observed at this time

METAR text: KMYR 142056Z 14005KT 10SM CLR 14/04 A3012 RMK AO2 SLP200 T01390039 56004
Conditions at: KMYR (MYRTLE BEACH , SC, US) observed 2056 UTC 14 February 2019
Temperature: 13.9°C (57°F)
Dewpoint: 3.9°C (39°F) [RH = 51%]
Pressure (altimeter): 30.12 inches Hg (1020.1 mb)
[Sea-level pressure: 1020.0 mb]
Winds: from the SE (140 degrees) at 6 MPH (5 knots; 2.6 m/s)
Visibility: 10 or more miles (16+ km)
Ceiling: at least 12,000 feet AGL
Clouds: sky clear below 12,000 feet AGL
Weather: no significant weather observed at this time

METAR text: KMYR 141956Z 13005KT 10SM CLR 14/04 A3012 RMK AO2 SLP200 T01440039
Conditions at: KMYR (MYRTLE BEACH , SC, US) observed 1956 UTC 14 February 2019
Temperature: 14.4°C (58°F)
Dewpoint: 3.9°C (39°F) [RH = 49%]
Pressure (altimeter): 30.12 inches Hg (1020.1 mb)
[Sea-level pressure: 1020.0 mb]
Winds: from the SE (130 degrees) at 6 MPH (5 knots; 2.6 m/s)
Visibility: 10 or more miles (16+ km)
Ceiling: at least 12,000 feet AGL
Clouds: sky clear below 12,000 feet AGL
Weather: no significant weather observed at this time

METAR text: KMYR 141856Z 14006KT 10SM CLR 14/03 A3013 RMK AO2 SLP203 T01390028
Conditions at: KMYR (MYRTLE BEACH , SC, US) observed 1856 UTC 14 February 2019
Temperature: 13.9°C (57°F)
Dewpoint: 2.8°C (37°F) [RH = 47%]
Pressure (altimeter): 30.13 inches Hg (1020.4 mb)
[Sea-level pressure: 1020.3 mb]
Winds: from the SE (140 degrees) at 7 MPH (6 knots; 3.1 m/s)
Visibility: 10 or more miles (16+ km)
Ceiling: at least 12,000 feet AGL
Clouds: sky clear below 12,000 feet AGL
Weather: no significant weather observed at this time

METAR text: KMYR 141756Z 13009KT 10SM CLR 14/01 A3013 RMK AO2 SLP205 T01390006 10144 20011 58025
Conditions at: KMYR (MYRTLE BEACH , SC, US) observed 1756 UTC 14 February 2019
Temperature: 13.9°C (57°F)
Dewpoint: 0.6°C (33°F) [RH = 40%]
Pressure (altimeter): 30.13 inches Hg (1020.4 mb)
[Sea-level pressure: 1020.5 mb]
Winds: from the SE (130 degrees) at 10 MPH (9 knots; 4.6 m/s)
Visibility: 10 or more miles (16+ km)
Ceiling: at least 12,000 feet AGL
Clouds: sky clear below 12,000 feet AGL
Weather: no significant weather observed at this time

METAR text: KMYR 141656Z 10008KT 10SM CLR 13/M01 A3016 RMK AO2 SLP215 T01281011
Conditions at: KMYR (MYRTLE BEACH , SC, US) observed 1656 UTC 14 February 2019
Temperature: 12.8°C (55°F)
Dewpoint: -1.1°C (30°F) [RH = 38%]
Pressure (altimeter): 30.16 inches Hg (1021.4 mb)
[Sea-level pressure: 1021.5 mb]
Winds: from the E (100 degrees) at 9 MPH (8 knots; 4.1 m/s)
Visibility: 10 or more miles (16+ km)
Ceiling: at least 12,000 feet AGL
Clouds: sky clear below 12,000 feet AGL
Weather: no significant weather observed at this time

METAR text: KMYR 141556Z 11007KT 10SM CLR 12/M01 A3020 RMK AO2 SLP227 T01221006
Conditions at: KMYR (MYRTLE BEACH , SC, US) observed 1556 UTC 14 February 2019
Temperature: 12.2°C (54°F)
Dewpoint: -0.6°C (31°F) [RH = 41%]
Pressure (altimeter): 30.20 inches Hg (1022.8 mb)
[Sea-level pressure: 1022.7 mb]
Winds: from the ESE (110 degrees) at 8 MPH (7 knots; 3.6 m/s)
Visibility: 10 or more miles (16+ km)
Ceiling: at least 12,000 feet AGL
Clouds: sky clear below 12,000 feet AGL
Weather: no significant weather observed at this time

METAR text: KMYR 141456Z VRB05KT 10SM CLR 13/M05 A3021 RMK AO2 SLP230 T01281050 51013
Conditions at: KMYR (MYRTLE BEACH , SC, US) observed 1456 UTC 14 February 2019
Temperature: 12.8°C (55°F)
Dewpoint: -5.0°C (23°F) [RH = 29%]
Pressure (altimeter): 30.21 inches Hg (1023.1 mb)
[Sea-level pressure: 1023.0 mb]
Winds: variable direction winds at 6 MPH (5 knots; 2.6 m/s)
Visibility: 10 or more miles (16+ km)
Ceiling: at least 12,000 feet AGL
Clouds: sky clear below 12,000 feet AGL
Weather: no significant weather observed at this time

METAR text: KMYR 141356Z 00000KT 10SM CLR 09/02 A3020 RMK AO2 SLP228 T00890022
Conditions at: KMYR (MYRTLE BEACH , SC, US) observed 1356 UTC 14 February 2019
Temperature: 8.9°C (48°F)
Dewpoint: 2.2°C (36°F) [RH = 63%]
Pressure (altimeter): 30.20 inches Hg (1022.8 mb)
[Sea-level pressure: 1022.8 mb]
Winds: calm
Visibility: 10 or more miles (16+ km)
Ceiling: at least 12,000 feet AGL
Clouds: sky clear below 12,000 feet AGL
Weather: no significant weather observed at this time

METAR text: KMYR 141256Z 00000KT 10SM CLR 03/01 A3020 RMK AO2 SLP225 T00330006
Conditions at: KMYR (MYRTLE BEACH , SC, US) observed 1256 UTC 14 February 2019
Temperature: 3.3°C (38°F)
Dewpoint: 0.6°C (33°F) [RH = 82%]
Pressure (altimeter): 30.20 inches Hg (1022.8 mb)
[Sea-level pressure: 1022.5 mb]
Winds: calm
Visibility: 10 or more miles (16+ km)
Ceiling: at least 12,000 feet AGL
Clouds: sky clear below 12,000 feet AGL
Weather: no significant weather observed at this time

METAR text: KMYR 141156Z 35003KT 10SM CLR 02/00 A3017 RMK AO2 SLP217 T00220000 10067 20011 53002
Conditions at: KMYR (MYRTLE BEACH , SC, US) observed 1156 UTC 14 February 2019
Temperature: 2.2°C (36°F)
Dewpoint: 0.0°C (32°F) [RH = 85%]
Pressure (altimeter): 30.17 inches Hg (1021.8 mb)
[Sea-level pressure: 1021.7 mb]
Winds: from the N (350 degrees) at 3 MPH (3 knots; 1.5 m/s)
Visibility: 10 or more miles (16+ km)
Ceiling: at least 12,000 feet AGL
Clouds: sky clear below 12,000 feet AGL
Weather: no significant weather observed at this time

Forecast for: KMYR (MYRTLE BEACH , SC, US)
Text: KMYR 151720Z 1518/1618 22005KT P6SM SCT150
Forecast period: 1800 UTC 15 February 2019 to 0400 UTC 16 February 2019
Forecast type: FROM: standard forecast or significant change
Winds: from the SW (220 degrees) at 6 MPH (5 knots; 2.6 m/s)
Visibility: 6 or more miles 10+ km)
Ceiling: at least 12,000 feet AGL
Clouds: scattered clouds at 15000 feet AGL
Weather: no significant weather forecast for this period
Text: FM160400 22006KT P6SM OVC050
Forecast period: 0400 to 0700 UTC 16 February 2019
Forecast type: FROM: standard forecast or significant change
Winds: from the SW (220 degrees) at 7 MPH (6 knots; 3.1 m/s)
Visibility: 6 or more miles 10+ km)
Ceiling: 5000 feet AGL
Clouds: overcast cloud deck at 5000 feet AGL
Weather: no significant weather forecast for this period
Text: FM160700 24005KT 4SM -RA BKN020
Forecast period: 0700 to 0900 UTC 16 February 2019
Forecast type: FROM: standard forecast or significant change
Winds: from the WSW (240 degrees) at 6 MPH (5 knots; 2.6 m/s)
Visibility: 4 miles (6 km)
Ceiling: 2000 feet AGL
Clouds: broken clouds at 2000 feet AGL
Weather: -RA  (light rain)
Text: FM160900 22006KT 3SM RA BKN008
Forecast period: 0900 to 1800 UTC 16 February 2019
Forecast type: FROM: standard forecast or significant change
Winds: from the SW (220 degrees) at 7 MPH (6 knots; 3.1 m/s)
Visibility: 3 miles (5 km)
Ceiling: 800 feet AGL
Clouds: broken clouds at 800 feet AGL
Weather: RA  (moderate rain)